Indian Stream Twp, Maine
Current Conditions -  °F | °C
As of 5:15 PM on Thursday 18 Dec 2014 (Local Time) from KWVL Reporting Station
Overcast Overcast  
Wind Chill: 28°   Ceiling: 4200
Heat Index: 34°   Visibility: 10mi
Dew Point: 25°   Wind: 7mph
Humidity: 70%   Direction: 330°NNW
Pressure: 29.69"   Gusts: NA
Location:  45.3915°N, 69.9186°W
Report Text: KWVL 182215Z 33006KT 10SM BKN042 OVC110 01/M04 A2969 RMK AO1
Loading
Personal Weather Stations






























Interactive Weather Map New forecast layout! Learn more

10-Day Weather Forecast

Advertisements
Track Severe Weather on mobile